Time;durP1;ratioP1;P1;durP2;ratioP2;P2;SDS_P1;SDS_P2;PMS_P1;PMS_P2;Temp;Humidity;BMP_temperature;BMP_pressure;BME280_temperature;BME280_humidity;BME280_pressure;Samples;Min_cycle;Max_cycle;Signal;HPM_P1;HPM_P2
2022/12/24 00:02:09;;;;;;;0.6;0.5;;;;;;;8.67;100;932.8513;;;;
2022/12/24 00:04:36;;;;;;;0.3;0.3;;;;;;;8.69;99.26172;932.9022;;;;
2022/12/24 00:07:03;;;;;;;0.8;0.5;;;;;;;8.54;100;933.0817;;;;
2022/12/24 00:09:45;;;;;;;0.5;0.5;;;;;;;8.61;99.62109;932.9008;;;;
2022/12/24 00:12:25;;;;;;;0.9;0.4;;;;;;;8.5;99.92285;932.9846;;;;
2022/12/24 00:14:50;;;;;;;0.9;0.4;;;;;;;8.53;98.39746;932.8689;;;;
2022/12/24 00:17:21;;;;;;;1;0.5;;;;;;;8.62;100;933.0239;;;;
2022/12/24 00:19:59;;;;;;;0.5;0.5;;;;;;;8.53;100;933.0641;;;;
2022/12/24 00:22:28;;;;;;;0.8;0.5;;;;;;;8.43;98.66797;932.8617;;;;
2022/12/24 00:24:53;;;;;;;0.6;0.3;;;;;;;8.49;99.89844;933.0725;;;;
2022/12/24 00:27:29;;;;;;;0.3;0.3;;;;;;;8.48;99.37109;933.1478;;;;
2022/12/24 00:33:51;;;;;;;0.5;0.4;;;;;;;8.62;98.4502;933.2581;;;;
2022/12/24 00:36:18;;;;;;;0.4;0.4;;;;;;;8.59;97.31836;933.0344;;;;
2022/12/24 00:38:55;;;;;;;0.4;0.4;;;;;;;8.62;97.58594;933.0215;;;;
2022/12/24 00:41:27;;;;;;;0.4;0.4;;;;;;;8.69;96.59082;932.9117;;;;
2022/12/24 00:43:48;;;;;;;1;0.3;;;;;;;8.72;96.0752;933.0898;;;;
2022/12/24 00:46:13;;;;;;;0.4;0.4;;;;;;;8.8;96.6377;933.1348;;;;
2022/12/24 00:48:38;;;;;;;0.9;0.6;;;;;;;8.88;95.91602;933.1039;;;;
2022/12/24 00:51:03;;;;;;;0.4;0.4;;;;;;;8.66;97.96973;933.1495;;;;
2022/12/24 00:53:30;;;;;;;0.7;0.5;;;;;;;8.51;99.07324;933.217;;;;
2022/12/24 00:55:55;;;;;;;0.6;0.5;;;;;;;8.49;100;933.2994;;;;
2022/12/24 00:58:21;;;;;;;1.6;0.6;;;;;;;8.49;99.77344;933.4858;;;;
2022/12/24 01:00:46;;;;;;;0.6;0.6;;;;;;;8.47;98.61914;933.4825;;;;
2022/12/24 01:03:11;;;;;;;0.7;0.5;;;;;;;8.51;98.19727;933.4535;;;;
2022/12/24 01:05:37;;;;;;;0.5;0.5;;;;;;;8.64;98.02246;933.5764;;;;
2022/12/24 01:08:03;;;;;;;1.1;0.6;;;;;;;8.53;98.37402;933.7846;;;;
2022/12/24 01:10:28;;;;;;;0.9;0.8;;;;;;;8.62;97.64258;933.877;;;;
2022/12/24 01:12:53;;;;;;;1;0.6;;;;;;;8.62;97.46094;933.9261;;;;
2022/12/24 01:15:21;;;;;;;0.9;0.6;;;;;;;8.66;96.60547;933.9052;;;;
2022/12/24 01:17:46;;;;;;;1.5;0.6;;;;;;;8.64;96.66895;933.8478;;;;
2022/12/24 01:20:13;;;;;;;0.9;0.7;;;;;;;8.62;96.4834;933.8588;;;;
2022/12/24 01:22:39;;;;;;;0.8;0.8;;;;;;;8.62;97.2334;933.8825;;;;
2022/12/24 01:25:04;;;;;;;2.1;0.7;;;;;;;8.64;96.96484;933.9034;;;;
2022/12/24 01:27:33;;;;;;;0.6;0.6;;;;;;;8.6;97.86621;933.8011;;;;
2022/12/24 01:29:58;;;;;;;0.8;0.7;;;;;;;8.65;97.75293;933.89;;;;
2022/12/24 01:32:23;;;;;;;2;0.8;;;;;;;8.6;97.96875;933.8725;;;;
2022/12/24 01:35:17;;;;;;;0.9;0.6;;;;;;;8.58;98.23535;933.8778;;;;
2022/12/24 01:37:45;;;;;;;0.5;0.5;;;;;;;8.52;98.89258;933.9258;;;;
2022/12/24 01:45:00;;;;;;;1.1;0.7;;;;;;;8.44;100;934.0114;;;;
2022/12/24 01:47:42;;;;;;;1.2;0.7;;;;;;;8.48;99.58887;934.1498;;;;
2022/12/24 01:50:07;;;;;;;1.1;0.8;;;;;;;8.38;100;934.2858;;;;
2022/12/24 01:52:34;;;;;;;1.4;0.6;;;;;;;8.45;98.92188;934.2178;;;;
2022/12/24 01:54:59;;;;;;;0.9;0.7;;;;;;;8.49;98.28418;934.2459;;;;
2022/12/24 01:57:27;;;;;;;0.5;0.5;;;;;;;8.51;99.4707;934.2088;;;;
2022/12/24 01:59:52;;;;;;;1.2;0.6;;;;;;;8.49;99.78418;934.2349;;;;
2022/12/24 02:02:17;;;;;;;1;0.5;;;;;;;8.48;99.96191;934.3331;;;;
2022/12/24 02:04:43;;;;;;;0.5;0.5;;;;;;;8.52;98.5752;934.2534;;;;
2022/12/24 02:07:09;;;;;;;1.2;0.5;;;;;;;8.56;98.25391;934.4205;;;;
2022/12/24 02:09:34;;;;;;;0.4;0.4;;;;;;;8.52;97.4834;934.4526;;;;
2022/12/24 02:12:00;;;;;;;0.4;0.4;;;;;;;8.74;94.78125;934.3384;;;;
2022/12/24 02:14:25;;;;;;;1;0.5;;;;;;;8.69;96.44238;934.5539;;;;
2022/12/24 02:16:54;;;;;;;3.4;3.1;;;;;;;8.77;96.01563;934.3546;;;;
2022/12/24 02:19:18;;;;;;;1.5;1.2;;;;;;;8.77;95.89258;934.6102;;;;
2022/12/24 02:21:44;;;;;;;0.8;0.5;;;;;;;8.66;95.33203;934.5773;;;;
2022/12/24 02:24:12;;;;;;;0.6;0.3;;;;;;;8.69;94.89648;934.5689;;;;
2022/12/24 02:26:37;;;;;;;0.3;0.3;;;;;;;8.76;94.51465;934.6545;;;;
2022/12/24 02:29:02;;;;;;;0.8;0.8;;;;;;;8.79;95.11133;934.7159;;;;
2022/12/24 02:31:27;;;;;;;1.4;0.6;;;;;;;8.83;94.7334;934.5793;;;;
2022/12/24 02:33:52;;;;;;;0.4;0.4;;;;;;;8.75;94.58984;934.5734;;;;
2022/12/24 02:36:18;;;;;;;0.7;0.3;;;;;;;8.66;95.60449;934.598;;;;
2022/12/24 02:38:43;;;;;;;0.5;0.4;;;;;;;8.71;94.40039;934.4835;;;;
2022/12/24 02:41:08;;;;;;;0.9;0.7;;;;;;;8.73;94.32422;934.4011;;;;
2022/12/24 02:43:34;;;;;;;0.5;0.5;;;;;;;8.77;95.21973;934.5228;;;;
2022/12/24 02:45:58;;;;;;;1;0.3;;;;;;;8.71;95.35547;934.4294;;;;
2022/12/24 02:48:26;;;;;;;0.8;0.6;;;;;;;8.79;94.50684;934.5469;;;;
2022/12/24 02:51:48;;;;;;;0.6;0.6;;;;;;;8.83;94.05078;934.5524;;;;
2022/12/24 02:54:17;;;;;;;0.8;0.5;;;;;;;8.91;93.12207;934.6555;;;;
2022/12/24 02:56:42;;;;;;;0.8;0.6;;;;;;;8.85;94.375;934.7137;;;;
2022/12/24 02:59:08;;;;;;;1;0.7;;;;;;;8.8;94.64746;934.574;;;;
2022/12/24 03:04:52;;;;;;;1.7;1.6;;;;;;;8.77;94.56152;934.7856;;;;
2022/12/24 03:07:20;;;;;;;1.3;0.7;;;;;;;8.8;94.3291;934.9305;;;;
2022/12/24 03:09:44;;;;;;;0.9;0.7;;;;;;;8.79;95.15723;935.0233;;;;
2022/12/24 03:14:58;;;;;;;0.9;0.7;;;;;;;8.86;94.73926;935.0837;;;;
2022/12/24 03:17:28;;;;;;;1.2;1.1;;;;;;;8.85;95.00098;934.9551;;;;
2022/12/24 03:19:56;;;;;;;1.5;1;;;;;;;8.87;95.12988;934.9942;;;;
2022/12/24 03:22:21;;;;;;;1.3;1;;;;;;;8.95;93.74805;934.9576;;;;
2022/12/24 03:24:48;;;;;;;1.7;1;;;;;;;9.01;93.52148;934.8546;;;;
2022/12/24 03:27:14;;;;;;;1.6;1.5;;;;;;;8.85;95.03418;935.0036;;;;
2022/12/24 03:29:39;;;;;;;1;1;;;;;;;8.69;97.19336;935.1769;;;;
2022/12/24 03:32:05;;;;;;;1.5;0.7;;;;;;;8.65;92.55566;935.0836;;;;
2022/12/24 03:34:30;;;;;;;0.8;0.7;;;;;;;8.66;95.08203;935.0209;;;;
2022/12/24 03:36:55;;;;;;;0.8;0.6;;;;;;;8.73;91.62988;935.1202;;;;
2022/12/24 03:39:22;;;;;;;1.7;0.9;;;;;;;8.79;92.92871;935.4352;;;;
2022/12/24 03:41:48;;;;;;;0.9;0.8;;;;;;;8.62;88.19629;935.7332;;;;
2022/12/24 03:44:15;;;;;;;0.7;0.5;;;;;;;9.15;80.39551;935.863;;;;
2022/12/24 03:46:40;;;;;;;0.2;0.2;;;;;;;9.26;78.9707;935.8264;;;;
2022/12/24 03:49:05;;;;;;;1.5;0.5;;;;;;;9.27;81.4082;936.0743;;;;
2022/12/24 03:51:32;;;;;;;3.1;2.2;;;;;;;9.22;82.71973;936.2922;;;;
2022/12/24 03:53:59;;;;;;;1.4;0.4;;;;;;;9.19;83.77051;936.0945;;;;
2022/12/24 03:56:25;;;;;;;0.3;0.3;;;;;;;9.04;81.38867;936.2042;;;;
2022/12/24 03:58:51;;;;;;;0.4;0.4;;;;;;;9.17;81.80859;936.3977;;;;
2022/12/24 04:02:33;;;;;;;0.3;0.3;;;;;;;9.04;83.9375;936.4083;;;;
2022/12/24 04:05:02;;;;;;;0.7;0.4;;;;;;;8.95;85.2832;936.5251;;;;
2022/12/24 04:07:31;;;;;;;0.3;0.3;;;;;;;8.92;86.30078;936.6295;;;;
2022/12/24 04:09:56;;;;;;;0.4;0.4;;;;;;;8.89;86.88574;936.68;;;;
2022/12/24 04:12:25;;;;;;;1.7;0.5;;;;;;;8.91;87.50293;936.7247;;;;
2022/12/24 04:14:51;;;;;;;0.4;0.4;;;;;;;8.81;88.06348;936.7477;;;;
2022/12/24 04:17:31;;;;;;;0.6;0.5;;;;;;;8.7;88.73633;936.7241;;;;
2022/12/24 04:20:00;;;;;;;0.7;0.4;;;;;;;8.49;89.93262;936.6502;;;;
2022/12/24 04:22:25;;;;;;;1.4;0.4;;;;;;;8.48;90.58984;936.7238;;;;
2022/12/24 04:24:55;;;;;;;0.9;0.7;;;;;;;8.52;91.24512;936.8823;;;;
2022/12/24 04:27:20;;;;;;;1.3;0.6;;;;;;;8.62;91.2207;936.7292;;;;
2022/12/24 04:29:50;;;;;;;1.1;0.4;;;;;;;8.51;92.39258;936.6252;;;;
2022/12/24 04:32:15;;;;;;;1;0.6;;;;;;;8.35;94.30957;936.6089;;;;
2022/12/24 04:34:40;;;;;;;0.5;0.5;;;;;;;8.46;94.48145;936.6147;;;;
2022/12/24 04:37:53;;;;;;;0.5;0.5;;;;;;;8.56;93.53906;936.6726;;;;
2022/12/24 04:40:23;;;;;;;0.7;0.6;;;;;;;8.6;93.22852;936.8192;;;;
2022/12/24 04:42:49;;;;;;;0.6;0.6;;;;;;;8.55;94.92188;936.8295;;;;
2022/12/24 04:45:13;;;;;;;1.3;0.7;;;;;;;8.54;95.1123;936.75;;;;
2022/12/24 04:47:43;;;;;;;1.1;1;;;;;;;8.58;94.94043;936.8006;;;;
2022/12/24 04:50:12;;;;;;;0.8;0.8;;;;;;;8.54;95.3877;936.8564;;;;
2022/12/24 04:52:37;;;;;;;4.2;1.2;;;;;;;8.46;96.27832;936.7355;;;;
2022/12/24 04:55:05;;;;;;;0.6;0.5;;;;;;;8.49;96.39844;936.839;;;;
2022/12/24 04:57:30;;;;;;;0.5;0.5;;;;;;;8.49;96.19336;936.8414;;;;
2022/12/24 04:59:55;;;;;;;2.9;2.2;;;;;;;8.36;97.37891;936.9525;;;;
2022/12/24 05:02:20;;;;;;;6;4;;;;;;;8.34;97.75;936.9435;;;;
2022/12/24 05:04:48;;;;;;;3.8;2.4;;;;;;;8.43;97.17773;936.9769;;;;
2022/12/24 05:07:13;;;;;;;3.1;1.8;;;;;;;8.42;97.14355;936.8142;;;;
2022/12/24 05:09:40;;;;;;;1;0.8;;;;;;;8.47;96.7334;936.7252;;;;
2022/12/24 05:12:05;;;;;;;1.1;0.8;;;;;;;8.45;96.99023;936.9495;;;;
2022/12/24 05:14:32;;;;;;;7.8;5.4;;;;;;;8.34;97.61328;936.8691;;;;
2022/12/24 05:16:57;;;;;;;12.3;11.3;;;;;;;8.35;97.87891;936.8089;;;;
2022/12/24 05:19:22;;;;;;;7.8;7.2;;;;;;;8.24;97.89746;936.9695;;;;
2022/12/24 05:26:20;;;;;;;1.7;1.6;;;;;;;8.19;98.73633;937.0033;;;;
2022/12/24 05:26:38;;;;;;;0.5;0.5;;;;;;;8.1;99.0791;936.759;;;;
2022/12/24 05:29:03;;;;;;;0.6;0.6;;;;;;;7.91;98.05957;936.7961;;;;
2022/12/24 05:31:32;;;;;;;1.3;0.6;;;;;;;7.92;97.91406;936.9579;;;;
2022/12/24 05:33:57;;;;;;;0.4;0.4;;;;;;;7.99;97.63574;937.0402;;;;
2022/12/24 05:36:24;;;;;;;1;0.7;;;;;;;8.03;97.31641;937.1061;;;;
2022/12/24 05:38:56;;;;;;;1.3;0.9;;;;;;;8.15;97.11426;937.1635;;;;
2022/12/24 05:41:28;;;;;;;2.1;1.4;;;;;;;8.26;96.91309;937.2123;;;;
2022/12/24 05:43:57;;;;;;;1.1;0.8;;;;;;;8.17;97.43848;937.2861;;;;
2022/12/24 05:46:22;;;;;;;0.7;0.7;;;;;;;8.08;98.47559;937.3401;;;;
2022/12/24 05:48:53;;;;;;;0.8;0.8;;;;;;;8.1;98.625;937.476;;;;
2022/12/24 05:51:20;;;;;;;1.5;1.4;;;;;;;8.01;99.42383;937.5545;;;;
2022/12/24 05:53:43;;;;;;;1.7;1.6;;;;;;;8.06;98.93457;937.5959;;;;
2022/12/24 05:56:12;;;;;;;1.5;1.1;;;;;;;7.99;99.36133;937.5546;;;;
2022/12/24 05:58:42;;;;;;;1.7;1.2;;;;;;;7.99;99.74707;937.7346;;;;
2022/12/24 06:01:07;;;;;;;1.2;1;;;;;;;8.08;99.30273;937.6516;;;;
2022/12/24 06:03:38;;;;;;;2;1.5;;;;;;;8.08;99.16602;937.6596;;;;
2022/12/24 06:06:19;;;;;;;2.1;1.9;;;;;;;8.08;99.17773;937.6652;;;;
2022/12/24 06:08:46;;;;;;;1.3;1.2;;;;;;;8.05;99.36426;937.7068;;;;
2022/12/24 06:11:11;;;;;;;1.2;1;;;;;;;7.92;100;937.6685;;;;
2022/12/24 06:13:36;;;;;;;0.7;0.7;;;;;;;7.78;100;937.798;;;;
2022/12/24 06:16:12;;;;;;;0.7;0.7;;;;;;;7.69;100;937.8136;;;;
2022/12/24 06:18:37;;;;;;;1.3;0.9;;;;;;;7.76;100;937.8894;;;;
2022/12/24 06:37:17;;;;;;;2.7;2.5;;;;;;;7.86;99.52441;937.7798;;;;
2022/12/24 06:40:31;;;;;;;3.8;3.3;;;;;;;7.92;99.60547;937.9578;;;;
2022/12/24 06:42:56;;;;;;;2.3;2;;;;;;;8.04;99.29199;938.0347;;;;
2022/12/24 06:45:22;;;;;;;2.7;2.5;;;;;;;8.11;98.52734;938.0107;;;;
2022/12/24 06:47:51;;;;;;;3.2;2.1;;;;;;;8.2;98.10547;938.0797;;;;
2022/12/24 06:50:33;;;;;;;10.8;6.7;;;;;;;8.21;97.92578;938.1738;;;;
2022/12/24 06:53:02;;;;;;;7.4;5.4;;;;;;;8.18;98.15527;938.2919;;;;
2022/12/24 06:55:27;;;;;;;10.6;7.1;;;;;;;8.11;98.5498;938.312;;;;
2022/12/24 06:57:53;;;;;;;7.4;5;;;;;;;8.07;98.86914;938.2622;;;;
2022/12/24 07:03:55;;;;;;;21.4;13.6;;;;;;;8.03;98.97363;938.3812;;;;
2022/12/24 07:06:24;;;;;;;13.4;8.1;;;;;;;8.04;99.32813;938.3132;;;;
2022/12/24 07:08:49;;;;;;;2.4;1.8;;;;;;;7.91;99.9209;938.4246;;;;
2022/12/24 07:11:15;;;;;;;1.8;1.7;;;;;;;7.9;100;938.4339;;;;
2022/12/24 07:13:40;;;;;;;2.9;1.7;;;;;;;7.93;100;938.5273;;;;
2022/12/24 07:16:13;;;;;;;1.7;1.2;;;;;;;7.98;99.67676;938.555;;;;
2022/12/24 07:22:17;;;;;;;2;1.6;;;;;;;7.96;100;938.7285;;;;
2022/12/24 07:24:47;;;;;;;2.1;1.5;;;;;;;7.99;99.66699;938.7797;;;;
2022/12/24 07:27:12;;;;;;;2.8;1.6;;;;;;;8.03;99.09668;938.7308;;;;
2022/12/24 07:29:41;;;;;;;5.4;3.6;;;;;;;8.09;98.71387;938.7653;;;;
2022/12/24 07:32:05;;;;;;;4.7;3.6;;;;;;;8.13;98.14551;938.9183;;;;
2022/12/24 07:34:34;;;;;;;38.3;23.5;;;;;;;8.1;98.33203;938.9741;;;;
2022/12/24 07:36:59;;;;;;;26.1;17.1;;;;;;;7.82;99.23242;939.0038;;;;
2022/12/24 07:39:30;;;;;;;3;2.1;;;;;;;7.68;99.9707;939.0608;;;;
2022/12/24 07:42:00;;;;;;;2;1.4;;;;;;;7.83;99.7793;939.088;;;;
2022/12/24 07:44:24;;;;;;;1.6;1.2;;;;;;;7.97;99.43652;939.0845;;;;
2022/12/24 07:47:32;;;;;;;2;1;;;;;;;8.04;98.96484;939.0602;;;;
2022/12/24 07:49:57;;;;;;;4.7;3.5;;;;;;;8;98.7959;939.177;;;;
2022/12/24 07:52:24;;;;;;;4.4;3.4;;;;;;;7.91;98.95605;939.1824;;;;
2022/12/24 07:54:49;;;;;;;7.1;5;;;;;;;7.96;98.77539;939.1841;;;;
2022/12/24 07:57:17;;;;;;;7.5;5.3;;;;;;;7.9;99.47656;939.2115;;;;
2022/12/24 07:59:42;;;;;;;2;1.4;;;;;;;7.86;99.68359;939.2273;;;;
2022/12/24 08:02:10;;;;;;;26.8;16.2;;;;;;;7.71;100;939.2525;;;;
2022/12/24 08:04:41;;;;;;;21;12.8;;;;;;;7.75;100;939.1842;;;;
2022/12/24 08:07:10;;;;;;;15.3;10.8;;;;;;;7.76;100;939.2464;;;;
2022/12/24 08:09:35;;;;;;;10.4;7.8;;;;;;;7.85;100;939.2794;;;;
2022/12/24 08:12:03;;;;;;;9.6;6.8;;;;;;;7.84;100;939.2722;;;;
2022/12/24 08:14:27;;;;;;;11.2;8.1;;;;;;;7.91;100;939.3204;;;;
2022/12/24 08:16:56;;;;;;;17.8;14.6;;;;;;;7.9;100;939.3455;;;;
2022/12/24 08:19:21;;;;;;;19.9;16.1;;;;;;;7.9;100;939.3709;;;;
2022/12/24 08:21:48;;;;;;;14.7;11.7;;;;;;;7.84;100;939.4355;;;;
2022/12/24 08:24:13;;;;;;;10.8;8.6;;;;;;;7.87;100;939.5003;;;;
2022/12/24 08:26:40;;;;;;;7.9;7;;;;;;;7.9;100;939.5198;;;;
2022/12/24 08:29:05;;;;;;;8.4;5.8;;;;;;;7.73;100;939.5089;;;;
2022/12/24 08:31:35;;;;;;;12;5.9;;;;;;;7.64;100;939.4331;;;;
2022/12/24 08:33:59;;;;;;;8.2;4.7;;;;;;;7.58;100;939.3839;;;;
2022/12/24 08:36:24;;;;;;;8.8;4.9;;;;;;;7.57;100;939.428;;;;
2022/12/24 08:38:54;;;;;;;7.3;4.8;;;;;;;7.62;100;939.4455;;;;
2022/12/24 08:41:23;;;;;;;7.1;4.8;;;;;;;7.73;100;939.554;;;;
2022/12/24 08:46:47;;;;;;;9.1;6.7;;;;;;;7.69;100;939.4509;;;;
2022/12/24 08:49:14;;;;;;;11;6.8;;;;;;;7.7;100;939.4503;;;;
2022/12/24 08:51:42;;;;;;;10.1;7.4;;;;;;;7.65;100;939.5095;;;;
2022/12/24 08:54:07;;;;;;;10.7;7.5;;;;;;;7.82;100;939.5428;;;;
2022/12/24 08:56:34;;;;;;;10.3;8.1;;;;;;;7.89;100;939.515;;;;
2022/12/24 08:58:59;;;;;;;11.4;8.5;;;;;;;8.07;100;939.6451;;;;
2022/12/24 09:01:26;;;;;;;12.9;9.4;;;;;;;8.1;100;939.6323;;;;
2022/12/24 09:03:52;;;;;;;12.1;7.7;;;;;;;8.16;100;939.7327;;;;
2022/12/24 09:06:17;;;;;;;6;4.2;;;;;;;8.09;100;939.678;;;;
2022/12/24 09:08:42;;;;;;;3.4;2.9;;;;;;;8.11;100;939.6588;;;;
2022/12/24 09:11:10;;;;;;;4.5;2.3;;;;;;;8.02;100;939.7528;;;;
2022/12/24 09:13:35;;;;;;;6.2;4.2;;;;;;;8.11;100;939.7656;;;;
2022/12/24 09:16:05;;;;;;;6.4;4.4;;;;;;;8.27;99.80078;939.7502;;;;
2022/12/24 09:18:30;;;;;;;5.4;3;;;;;;;8.44;99.16016;939.7186;;;;
2022/12/24 09:20:57;;;;;;;2.2;2;;;;;;;8.54;98.10156;939.8475;;;;
2022/12/24 09:23:22;;;;;;;3.5;2;;;;;;;8.64;97.98828;939.9116;;;;
2022/12/24 09:25:47;;;;;;;4.4;2.5;;;;;;;8.59;97.88672;939.9437;;;;
2022/12/24 09:28:12;;;;;;;3.9;3.2;;;;;;;8.66;97.55957;939.8579;;;;
2022/12/24 09:30:46;;;;;;;3.1;2.8;;;;;;;8.76;97.0498;939.9679;;;;
2022/12/24 09:33:11;;;;;;;3.4;2.8;;;;;;;8.88;96.61035;939.9464;;;;
2022/12/24 09:35:42;;;;;;;2.5;2;;;;;;;8.89;96.53223;940.0356;;;;
2022/12/24 09:38:11;;;;;;;2.3;1.8;;;;;;;8.92;93.87891;940.0513;;;;
2022/12/24 09:40:36;;;;;;;3.2;2.3;;;;;;;8.94;95.05273;940.0634;;;;
2022/12/24 09:43:02;;;;;;;3.6;2.6;;;;;;;8.99;95.51953;940.0613;;;;
2022/12/24 09:45:35;;;;;;;7;4.8;;;;;;;8.92;95.0957;939.9966;;;;
2022/12/24 09:48:02;;;;;;;9.7;7.5;;;;;;;8.77;95.47168;940.0594;;;;
2022/12/24 09:50:27;;;;;;;9;7;;;;;;;8.75;97.02344;940.043;;;;
2022/12/24 09:52:52;;;;;;;6.2;5.3;;;;;;;8.76;96.88867;939.9939;;;;
2022/12/24 09:55:18;;;;;;;5.4;4.3;;;;;;;8.47;96.87109;939.9334;;;;
2022/12/24 09:57:43;;;;;;;5.1;4.1;;;;;;;8.28;98.56445;939.9694;;;;
2022/12/24 10:00:14;;;;;;;9.3;6.6;;;;;;;7.92;100;939.9557;;;;
2022/12/24 10:02:46;;;;;;;9;6.7;;;;;;;7.96;100;939.9453;;;;
2022/12/24 10:05:17;;;;;;;4;3.6;;;;;;;8.05;100;939.9977;;;;
2022/12/24 10:07:48;;;;;;;4.1;3.2;;;;;;;8.12;100;939.8926;;;;
2022/12/24 10:10:16;;;;;;;2.6;2.2;;;;;;;8.29;100;939.8981;;;;
2022/12/24 10:12:42;;;;;;;3.7;3.2;;;;;;;8.33;100;939.8284;;;;
2022/12/24 10:15:10;;;;;;;2.4;2.1;;;;;;;8.5;99.5918;939.7935;;;;
2022/12/24 10:17:36;;;;;;;3.2;2.3;;;;;;;8.67;98.68945;939.8359;;;;
2022/12/24 10:20:02;;;;;;;2.6;1.8;;;;;;;8.88;97.33789;939.8711;;;;
2022/12/24 10:22:27;;;;;;;1.8;1.4;;;;;;;8.94;94.9502;939.8555;;;;
2022/12/24 10:24:52;;;;;;;1.2;1.1;;;;;;;8.95;92.33789;939.6833;;;;
2022/12/24 10:27:17;;;;;;;2.3;1.6;;;;;;;8.94;93.42773;939.6998;;;;
2022/12/24 10:29:43;;;;;;;1.7;1.6;;;;;;;8.81;91.34961;939.7011;;;;
2022/12/24 10:32:08;;;;;;;3.4;2.3;;;;;;;8.26;91.32715;939.67;;;;
2022/12/24 10:34:34;;;;;;;2.2;1.8;;;;;;;8.25;92.1416;939.6245;;;;
2022/12/24 10:37:01;;;;;;;4.1;2.6;;;;;;;8.47;91.82422;939.577;;;;
2022/12/24 10:39:25;;;;;;;3;2.4;;;;;;;8.66;91.75293;939.5817;;;;
2022/12/24 10:41:51;;;;;;;3.4;1.8;;;;;;;8.84;92.12109;939.533;;;;
2022/12/24 10:44:16;;;;;;;1.9;1.5;;;;;;;8.85;90.75781;939.4133;;;;
2022/12/24 10:46:46;;;;;;;1.1;1;;;;;;;8.93;89.7041;939.3423;;;;
2022/12/24 10:49:11;;;;;;;1.7;1.1;;;;;;;9;90.20898;939.3434;;;;
2022/12/24 10:51:38;;;;;;;1.2;1.1;;;;;;;9.06;89.4707;939.3075;;;;
2022/12/24 10:54:05;;;;;;;2.5;2.2;;;;;;;9.05;90.46973;939.2787;;;;
2022/12/24 10:56:28;;;;;;;1;0.8;;;;;;;9.06;89.99414;939.163;;;;
2022/12/24 10:58:56;;;;;;;0.7;0.5;;;;;;;8.84;90.96094;939.3186;;;;
2022/12/24 11:01:21;;;;;;;0.7;0.4;;;;;;;8.88;90.24121;939.3914;;;;
2022/12/24 11:03:49;;;;;;;0.5;0.5;;;;;;;8.78;89.65137;939.3427;;;;
2022/12/24 11:06:19;;;;;;;0.8;0.8;;;;;;;8.91;90.04199;939.3959;;;;
2022/12/24 11:08:42;;;;;;;1.1;0.7;;;;;;;8.88;86.54395;939.4256;;;;
2022/12/24 11:11:09;;;;;;;8.1;3.7;;;;;;;8.75;87.0625;939.3571;;;;
2022/12/24 11:13:34;;;;;;;0.8;0.6;;;;;;;8.72;87.08008;939.3819;;;;
2022/12/24 11:15:59;;;;;;;1;0.7;;;;;;;8.73;88.08203;939.3466;;;;
2022/12/24 11:18:24;;;;;;;78.4;41.6;;;;;;;8.88;89.05762;939.3328;;;;
2022/12/24 11:20:52;;;;;;;1.5;0.9;;;;;;;9.05;89.27539;939.2335;;;;
2022/12/24 11:23:17;;;;;;;0.7;0.7;;;;;;;9.08;89.59961;939.2427;;;;
2022/12/24 11:25:46;;;;;;;1.1;1;;;;;;;9.19;90.33887;939.2572;;;;
2022/12/24 11:28:11;;;;;;;1;0.9;;;;;;;9.14;89.71289;939.2825;;;;
2022/12/24 11:30:39;;;;;;;0.6;0.6;;;;;;;9.04;89.94336;939.2015;;;;
2022/12/24 11:33:04;;;;;;;1.6;1.5;;;;;;;9.08;91.78418;939.1306;;;;
2022/12/24 11:35:29;;;;;;;4.3;2.7;;;;;;;9.02;91.70508;939.0757;;;;
2022/12/24 11:37:54;;;;;;;2.5;2.3;;;;;;;9.25;91.32031;939.0391;;;;
2022/12/24 11:40:20;;;;;;;4.9;3.2;;;;;;;9.16;90.82324;939.0406;;;;
2022/12/24 11:42:45;;;;;;;7.3;3.7;;;;;;;9.13;91.80762;938.9996;;;;
2022/12/24 11:45:10;;;;;;;7.2;3.3;;;;;;;9.4;92.33203;939.0184;;;;
2022/12/24 11:47:37;;;;;;;34.6;17.5;;;;;;;9.5;91.90918;939.0385;;;;
2022/12/24 11:50:02;;;;;;;1.6;1.4;;;;;;;9.43;89.83203;939.0151;;;;
2022/12/24 11:52:28;;;;;;;2.6;1.8;;;;;;;9.32;89.35254;938.9941;;;;
2022/12/24 11:54:53;;;;;;;2.2;1.5;;;;;;;9.11;88.35352;938.9985;;;;
2022/12/24 11:57:19;;;;;;;3.7;2.3;;;;;;;9.11;89.61621;939.0247;;;;
2022/12/24 11:59:44;;;;;;;2.8;1.9;;;;;;;8.88;89.18262;939.0469;;;;
2022/12/24 12:02:13;;;;;;;2.1;1.5;;;;;;;8.69;91.30371;939.0154;;;;
2022/12/24 12:04:38;;;;;;;2.1;1.4;;;;;;;8.68;92.10938;939.0781;;;;
2022/12/24 12:07:03;;;;;;;2.5;1.2;;;;;;;8.64;91.81543;939.0273;;;;
2022/12/24 12:09:30;;;;;;;1.7;1.4;;;;;;;8.51;91.3125;939.0502;;;;
2022/12/24 12:11:56;;;;;;;2.3;1.3;;;;;;;8.6;90.78418;939.0414;;;;
2022/12/24 12:14:21;;;;;;;2;1.2;;;;;;;8.49;90.98926;939.1022;;;;
2022/12/24 12:17:04;;;;;;;2.1;1.6;;;;;;;8.57;90.91504;939.0941;;;;
2022/12/24 12:19:13;;;;;;;3.5;2.4;;;;;;;8.41;90.64258;939.111;;;;
2022/12/24 12:21:38;;;;;;;2.8;2.1;;;;;;;8.44;91.29785;939.2227;;;;
2022/12/24 12:24:05;;;;;;;2.3;2;;;;;;;8.53;91.93945;939.168;;;;
2022/12/24 12:26:31;;;;;;;2.7;2.1;;;;;;;8.52;92.12012;939.2573;;;;
2022/12/24 12:28:58;;;;;;;2.7;1.9;;;;;;;8.69;92.97559;939.2512;;;;
2022/12/24 12:31:23;;;;;;;2.4;1.8;;;;;;;8.79;91.96191;939.2134;;;;
2022/12/24 12:33:48;;;;;;;4.6;2.1;;;;;;;8.67;90.68652;939.1763;;;;
2022/12/24 12:36:13;;;;;;;2.2;1.9;;;;;;;8.71;91.50098;939.1969;;;;
2022/12/24 12:38:38;;;;;;;3.1;2.3;;;;;;;8.68;91.91602;939.2289;;;;
2022/12/24 12:41:06;;;;;;;3.6;2.2;;;;;;;8.85;91.92969;939.1639;;;;
2022/12/24 12:43:31;;;;;;;2.4;1.6;;;;;;;8.88;91.94727;939.2128;;;;
2022/12/24 12:45:56;;;;;;;1.5;1.2;;;;;;;8.87;91.63574;939.2538;;;;
2022/12/24 12:48:21;;;;;;;1.6;1.5;;;;;;;9;91.7334;939.264;;;;
2022/12/24 12:50:48;;;;;;;0.9;0.7;;;;;;;8.88;90.50195;939.2731;;;;
2022/12/24 12:53:13;;;;;;;0.8;0.5;;;;;;;8.69;90.58984;939.2863;;;;
2022/12/24 12:55:40;;;;;;;0.6;0.6;;;;;;;8.73;92.03906;939.3456;;;;
2022/12/24 12:58:05;;;;;;;0.8;0.8;;;;;;;8.81;91.88379;939.3248;;;;
2022/12/24 13:00:30;;;;;;;0.9;0.6;;;;;;;9;91.88281;939.3054;;;;
2022/12/24 13:02:55;;;;;;;1.8;1.1;;;;;;;8.98;92.84375;939.3478;;;;
2022/12/24 13:05:21;;;;;;;1.7;0.9;;;;;;;8.99;93.5625;939.3457;;;;
2022/12/24 13:07:49;;;;;;;1.7;1.2;;;;;;;9.02;93.79785;939.337;;;;
2022/12/24 13:10:15;;;;;;;1.4;1.3;;;;;;;9.09;93.69824;939.3191;;;;
2022/12/24 13:12:40;;;;;;;2.5;1.6;;;;;;;9.08;93.33203;939.3411;;;;
2022/12/24 13:15:08;;;;;;;2.4;1.9;;;;;;;9.13;92.77441;939.3514;;;;
2022/12/24 13:17:33;;;;;;;1.6;1.5;;;;;;;9.14;92.88867;939.3731;;;;
2022/12/24 13:20:02;;;;;;;2.6;2;;;;;;;9.19;93.03711;939.3692;;;;
2022/12/24 13:22:27;;;;;;;1.5;1.4;;;;;;;9.18;93.08008;939.3261;;;;
2022/12/24 13:24:52;;;;;;;2.4;2.1;;;;;;;9.15;93.08789;939.2717;;;;
2022/12/24 13:27:17;;;;;;;2.2;1.7;;;;;;;9.12;92.56836;939.2808;;;;
2022/12/24 13:29:44;;;;;;;1.7;1.6;;;;;;;9.11;92.82813;939.3425;;;;
2022/12/24 13:32:27;;;;;;;1.4;1.2;;;;;;;9.03;92.09375;939.3442;;;;
2022/12/24 13:34:54;;;;;;;1.1;1;;;;;;;9.01;91.05273;939.3389;;;;
2022/12/24 13:37:21;;;;;;;1.4;1.3;;;;;;;8.88;91.73047;939.3272;;;;
2022/12/24 13:39:52;;;;;;;1.9;1.7;;;;;;;8.87;91.91113;939.3563;;;;
2022/12/24 13:42:17;;;;;;;4.7;3;;;;;;;8.77;92.5127;939.4447;;;;
2022/12/24 13:44:45;;;;;;;3;2.7;;;;;;;8.79;92.62305;939.4953;;;;
2022/12/24 13:47:14;;;;;;;4;2.9;;;;;;;8.77;93.20898;939.5108;;;;
2022/12/24 13:49:41;;;;;;;3;2.6;;;;;;;8.63;92.73633;939.5122;;;;
2022/12/24 13:52:06;;;;;;;4.6;3.1;;;;;;;8.56;92.77734;939.5153;;;;
2022/12/24 13:54:32;;;;;;;3.3;2.3;;;;;;;8.68;92.63184;939.4576;;;;
2022/12/24 13:56:57;;;;;;;5.7;3.9;;;;;;;8.77;93.20898;939.5425;;;;
2022/12/24 13:59:23;;;;;;;5.1;4.2;;;;;;;8.87;92.21777;939.493;;;;
2022/12/24 14:01:50;;;;;;;10.9;8;;;;;;;8.93;92.02441;939.5455;;;;
2022/12/24 14:04:15;;;;;;;10.3;6.9;;;;;;;9.03;91.75195;939.5825;;;;
2022/12/24 14:06:40;;;;;;;7;5.1;;;;;;;9.06;91.76953;939.4815;;;;
2022/12/24 14:09:07;;;;;;;4.5;3.9;;;;;;;9.11;92.13379;939.503;;;;
2022/12/24 14:11:32;;;;;;;3.2;2.8;;;;;;;9.1;92.88281;939.533;;;;
2022/12/24 14:13:57;;;;;;;2.7;2.5;;;;;;;9.03;93.14063;939.5023;;;;
2022/12/24 14:16:24;;;;;;;3.2;2.3;;;;;;;8.97;93.58203;939.4756;;;;
2022/12/24 14:19:04;;;;;;;17.1;10.3;;;;;;;8.79;93.80566;939.4603;;;;
2022/12/24 14:21:23;;;;;;;13.8;10;;;;;;;8.71;94.125;939.4627;;;;
2022/12/24 14:23:49;;;;;;;32.8;19.7;;;;;;;8.67;94.6875;939.4533;;;;
2022/12/24 14:26:14;;;;;;;14.3;9.2;;;;;;;8.62;94.80078;939.4953;;;;
2022/12/24 14:28:39;;;;;;;5.6;4.6;;;;;;;8.44;95.04688;939.4662;;;;
2022/12/24 14:31:04;;;;;;;5.8;4.7;;;;;;;8.35;95.96777;939.4506;;;;
2022/12/24 14:33:31;;;;;;;6.5;5.1;;;;;;;8.26;96.15234;939.4501;;;;
2022/12/24 14:35:56;;;;;;;4.9;4.1;;;;;;;8.21;96.15332;939.508;;;;
2022/12/24 14:38:22;;;;;;;6.5;5.3;;;;;;;8.22;96.70996;939.5208;;;;
2022/12/24 14:40:49;;;;;;;6.2;5.4;;;;;;;8.21;97.29883;939.5552;;;;
2022/12/24 14:43:16;;;;;;;11.7;9.3;;;;;;;8.18;97.5332;939.6331;;;;
2022/12/24 14:45:44;;;;;;;21.1;11.9;;;;;;;8.2;97.5127;939.5962;;;;
2022/12/24 14:48:09;;;;;;;11.4;7.3;;;;;;;8.1;97.37891;939.5499;;;;
2022/12/24 14:50:34;;;;;;;13.7;9.7;;;;;;;8.03;97.7002;939.6188;;;;
2022/12/24 14:52:59;;;;;;;15.6;10.4;;;;;;;8.14;98.09082;939.587;;;;
2022/12/24 14:55:29;;;;;;;16;9.6;;;;;;;8.09;98.10059;939.6646;;;;
2022/12/24 14:57:55;;;;;;;11.9;8;;;;;;;8.02;98.23438;939.6203;;;;
2022/12/24 15:00:20;;;;;;;10.5;7.2;;;;;;;7.99;98.50977;939.6044;;;;
2022/12/24 15:02:51;;;;;;;17.8;10.6;;;;;;;8.01;98.64063;939.6067;;;;
2022/12/24 15:05:27;;;;;;;22.8;13.1;;;;;;;8.06;98.83301;939.652;;;;
2022/12/24 15:07:51;;;;;;;17.5;12.2;;;;;;;7.83;99.17578;939.6088;;;;
2022/12/24 15:10:18;;;;;;;15;11.2;;;;;;;7.76;100;939.6649;;;;
2022/12/24 15:12:43;;;;;;;17.2;12.3;;;;;;;7.84;100;939.685;;;;
2022/12/24 15:15:46;;;;;;;21.1;13.9;;;;;;;7.83;100;939.627;;;;
2022/12/24 15:18:11;;;;;;;21.5;13.8;;;;;;;7.83;100;939.7054;;;;
2022/12/24 15:20:37;;;;;;;16.5;11.1;;;;;;;7.83;100;939.7087;;;;
2022/12/24 15:23:02;;;;;;;18.2;12;;;;;;;7.78;100;939.7152;;;;
2022/12/24 15:25:32;;;;;;;17;11.4;;;;;;;7.79;100;939.7156;;;;
2022/12/24 15:27:57;;;;;;;17.4;12.2;;;;;;;7.83;100;939.6667;;;;
2022/12/24 15:30:25;;;;;;;20;13.7;;;;;;;7.77;100;939.7079;;;;
2022/12/24 15:33:13;;;;;;;17.1;13.3;;;;;;;7.84;100;939.7502;;;;
2022/12/24 15:35:39;;;;;;;16.8;12.5;;;;;;;7.79;100;939.7955;;;;